sensor_id;sensor_type;location;lat;lon;timestamp;noise_LAeq;noise_LA_min;noise_LA_max;noise_LA01;noise_LA95
77135;Laerm;48586;50.122;18.972;2023-04-15T00:00:56;37.79;34.78;46.31;;
77135;Laerm;48586;50.122;18.972;2023-04-15T00:03:00;43.29;36.48;51.86;;
77135;Laerm;48586;50.122;18.972;2023-04-15T00:05:07;42.51;34.48;50.82;;
77135;Laerm;48586;50.122;18.972;2023-04-15T00:07:14;35.79;34.01;40.82;;
77135;Laerm;48586;50.122;18.972;2023-04-15T00:09:20;42.12;34.83;51.15;;
77135;Laerm;48586;50.122;18.972;2023-04-15T00:11:25;38.61;33.94;48.26;;
77135;Laerm;48586;50.122;18.972;2023-04-15T00:13:30;37.23;34.36;42.26;;
77135;Laerm;48586;50.122;18.972;2023-04-15T00:15:38;36.45;34.31;43.21;;
77135;Laerm;48586;50.122;18.972;2023-04-15T00:17:42;39.25;34.77;46.54;;
77135;Laerm;48586;50.122;18.972;2023-04-15T00:19:47;41.90;34.61;50.07;;
77135;Laerm;48586;50.122;18.972;2023-04-15T00:21:51;36.11;33.77;49.07;;
77135;Laerm;48586;50.122;18.972;2023-04-15T00:23:55;40.60;34.28;60.86;;
77135;Laerm;48586;50.122;18.972;2023-04-15T00:26:00;36.86;33.95;47.26;;
77135;Laerm;48586;50.122;18.972;2023-04-15T00:28:04;43.48;34.48;54.59;;
77135;Laerm;48586;50.122;18.972;2023-04-15T00:30:10;35.34;33.71;41.16;;
77135;Laerm;48586;50.122;18.972;2023-04-15T00:32:18;43.56;34.22;59.03;;
77135;Laerm;48586;50.122;18.972;2023-04-15T00:34:22;47.26;34.23;59.75;;
77135;Laerm;48586;50.122;18.972;2023-04-15T00:36:27;43.48;33.95;55.72;;
77135;Laerm;48586;50.122;18.972;2023-04-15T00:38:32;44.09;34.04;57.22;;
77135;Laerm;48586;50.122;18.972;2023-04-15T00:40:37;36.02;34.10;40.55;;
77135;Laerm;48586;50.122;18.972;2023-04-15T00:42:41;40.24;33.98;51.41;;
77135;Laerm;48586;50.122;18.972;2023-04-15T00:44:46;35.51;34.04;44.01;;
77135;Laerm;48586;50.122;18.972;2023-04-15T00:46:51;35.87;33.69;40.10;;
77135;Laerm;48586;50.122;18.972;2023-04-15T00:48:58;43.31;34.14;53.94;;
77135;Laerm;48586;50.122;18.972;2023-04-15T00:51:03;37.89;33.91;47.85;;
77135;Laerm;48586;50.122;18.972;2023-04-15T00:53:07;36.41;34.36;40.97;;
77135;Laerm;48586;50.122;18.972;2023-04-15T00:55:12;40.07;34.34;49.85;;
77135;Laerm;48586;50.122;18.972;2023-04-15T00:57:19;36.14;33.91;43.33;;
77135;Laerm;48586;50.122;18.972;2023-04-15T00:59:24;35.77;33.94;40.73;;
77135;Laerm;48586;50.122;18.972;2023-04-15T01:01:29;36.16;34.02;39.90;;
77135;Laerm;48586;50.122;18.972;2023-04-15T01:03:35;37.08;34.15;50.42;;
77135;Laerm;48586;50.122;18.972;2023-04-15T01:05:41;44.95;39.09;53.65;;
77135;Laerm;48586;50.122;18.972;2023-04-15T01:07:47;42.85;38.66;49.31;;
77135;Laerm;48586;50.122;18.972;2023-04-15T01:09:53;46.65;38.99;60.64;;
77135;Laerm;48586;50.122;18.972;2023-04-15T01:11:57;42.43;33.96;52.07;;
77135;Laerm;48586;50.122;18.972;2023-04-15T01:14:03;36.35;34.11;45.21;;
77135;Laerm;48586;50.122;18.972;2023-04-15T01:16:11;35.94;33.67;41.99;;
77135;Laerm;48586;50.122;18.972;2023-04-15T01:18:15;36.57;33.93;48.35;;
77135;Laerm;48586;50.122;18.972;2023-04-15T01:20:20;45.39;34.23;55.98;;
77135;Laerm;48586;50.122;18.972;2023-04-15T01:22:28;37.00;34.17;44.65;;
77135;Laerm;48586;50.122;18.972;2023-04-15T01:24:36;36.36;33.82;44.91;;
77135;Laerm;48586;50.122;18.972;2023-04-15T01:26:42;36.44;34.16;44.29;;
77135;Laerm;48586;50.122;18.972;2023-04-15T01:28:47;36.77;34.18;45.57;;
77135;Laerm;48586;50.122;18.972;2023-04-15T01:31:05;43.13;34.21;53.46;;
77135;Laerm;48586;50.122;18.972;2023-04-15T01:33:13;41.40;34.07;50.53;;
77135;Laerm;48586;50.122;18.972;2023-04-15T01:35:20;35.44;32.93;45.50;;
77135;Laerm;48586;50.122;18.972;2023-04-15T01:37:26;39.99;33.46;52.65;;
77135;Laerm;48586;50.122;18.972;2023-04-15T01:39:30;37.12;33.28;45.63;;
77135;Laerm;48586;50.122;18.972;2023-04-15T01:41:36;39.29;34.01;48.86;;
77135;Laerm;48586;50.122;18.972;2023-04-15T01:43:42;40.34;34.09;51.58;;
77135;Laerm;48586;50.122;18.972;2023-04-15T01:45:46;40.14;33.57;51.46;;
77135;Laerm;48586;50.122;18.972;2023-04-15T01:47:52;47.74;34.97;58.39;;
77135;Laerm;48586;50.122;18.972;2023-04-15T01:49:56;35.20;33.53;43.94;;
77135;Laerm;48586;50.122;18.972;2023-04-15T01:52:00;42.62;33.66;55.63;;
77135;Laerm;48586;50.122;18.972;2023-04-15T01:54:05;35.96;34.27;41.93;;
77135;Laerm;48586;50.122;18.972;2023-04-15T01:56:09;39.66;33.99;51.09;;
77135;Laerm;48586;50.122;18.972;2023-04-15T01:58:13;35.70;33.88;46.09;;
77135;Laerm;48586;50.122;18.972;2023-04-15T02:00:22;36.29;33.97;49.11;;
77135;Laerm;48586;50.122;18.972;2023-04-15T02:02:26;45.53;34.67;56.03;;
77135;Laerm;48586;50.122;18.972;2023-04-15T02:04:31;35.42;33.87;46.89;;
77135;Laerm;48586;50.122;18.972;2023-04-15T02:06:36;36.91;34.10;43.68;;
77135;Laerm;48586;50.122;18.972;2023-04-15T02:08:40;38.68;34.13;49.15;;
77135;Laerm;48586;50.122;18.972;2023-04-15T02:10:45;36.80;34.11;47.34;;
77135;Laerm;48586;50.122;18.972;2023-04-15T02:12:50;38.50;34.22;50.09;;
77135;Laerm;48586;50.122;18.972;2023-04-15T02:14:54;43.02;34.82;51.38;;
77135;Laerm;48586;50.122;18.972;2023-04-15T02:17:00;38.04;34.20;50.03;;
77135;Laerm;48586;50.122;18.972;2023-04-15T02:19:09;35.92;33.92;44.46;;
77135;Laerm;48586;50.122;18.972;2023-04-15T02:21:14;43.20;34.76;56.22;;
77135;Laerm;48586;50.122;18.972;2023-04-15T02:23:19;40.53;34.58;53.27;;
77135;Laerm;48586;50.122;18.972;2023-04-15T02:25:23;38.25;34.02;48.43;;
77135;Laerm;48586;50.122;18.972;2023-04-15T02:27:28;43.28;34.72;57.36;;
77135;Laerm;48586;50.122;18.972;2023-04-15T02:29:32;44.48;34.47;56.91;;
77135;Laerm;48586;50.122;18.972;2023-04-15T02:31:37;38.70;34.28;48.13;;
77135;Laerm;48586;50.122;18.972;2023-04-15T02:33:44;37.87;34.32;46.78;;
77135;Laerm;48586;50.122;18.972;2023-04-15T02:35:49;40.75;34.37;51.96;;
77135;Laerm;48586;50.122;18.972;2023-04-15T02:37:56;36.73;34.01;42.70;;
77135;Laerm;48586;50.122;18.972;2023-04-15T02:40:01;42.03;35.53;53.42;;
77135;Laerm;48586;50.122;18.972;2023-04-15T02:42:06;41.92;35.76;49.86;;
77135;Laerm;48586;50.122;18.972;2023-04-15T02:44:11;38.04;34.94;52.73;;
77135;Laerm;48586;50.122;18.972;2023-04-15T02:46:15;38.35;34.75;52.14;;
77135;Laerm;48586;50.122;18.972;2023-04-15T02:48:20;40.07;34.69;48.39;;
77135;Laerm;48586;50.122;18.972;2023-04-15T02:50:27;40.79;34.58;50.78;;
77135;Laerm;48586;50.122;18.972;2023-04-15T02:52:31;46.14;34.76;56.88;;
77135;Laerm;48586;50.122;18.972;2023-04-15T02:54:36;39.31;34.74;49.28;;
77135;Laerm;48586;50.122;18.972;2023-04-15T02:56:40;44.82;35.88;55.75;;
77135;Laerm;48586;50.122;18.972;2023-04-15T02:58:44;45.63;36.27;54.78;;
77135;Laerm;48586;50.122;18.972;2023-04-15T03:00:51;46.49;36.03;56.91;;
77135;Laerm;48586;50.122;18.972;2023-04-15T03:03:01;42.94;35.30;57.10;;
77135;Laerm;48586;50.122;18.972;2023-04-15T03:05:10;38.51;35.10;49.98;;
77135;Laerm;48586;50.122;18.972;2023-04-15T03:07:23;39.56;35.10;52.88;;
77135;Laerm;48586;50.122;18.972;2023-04-15T03:09:28;41.87;35.82;51.33;;
77135;Laerm;48586;50.122;18.972;2023-04-15T03:11:34;44.67;36.61;53.92;;
77135;Laerm;48586;50.122;18.972;2023-04-15T03:13:46;45.18;36.42;59.09;;
77135;Laerm;48586;50.122;18.972;2023-04-15T03:16:00;46.70;36.79;67.34;;
77135;Laerm;48586;50.122;18.972;2023-04-15T03:18:06;46.82;35.18;61.43;;
77135;Laerm;48586;50.122;18.972;2023-04-15T03:20:12;49.25;36.27;64.21;;
77135;Laerm;48586;50.122;18.972;2023-04-15T03:22:16;47.11;36.14;61.63;;
77135;Laerm;48586;50.122;18.972;2023-04-15T03:24:24;48.88;36.18;63.90;;
77135;Laerm;48586;50.122;18.972;2023-04-15T03:26:32;50.50;36.73;64.19;;
77135;Laerm;48586;50.122;18.972;2023-04-15T03:28:42;50.67;36.39;65.95;;
77135;Laerm;48586;50.122;18.972;2023-04-15T03:30:49;44.47;36.82;57.04;;
77135;Laerm;48586;50.122;18.972;2023-04-15T03:32:54;47.13;37.46;57.08;;
77135;Laerm;48586;50.122;18.972;2023-04-15T03:34:58;48.47;37.97;68.24;;
77135;Laerm;48586;50.122;18.972;2023-04-15T03:37:02;46.67;37.78;61.79;;
77135;Laerm;48586;50.122;18.972;2023-04-15T03:39:07;45.71;38.19;54.26;;
77135;Laerm;48586;50.122;18.972;2023-04-15T03:41:14;51.44;41.63;59.80;;
77135;Laerm;48586;50.122;18.972;2023-04-15T03:43:18;49.28;38.97;59.15;;
77135;Laerm;48586;50.122;18.972;2023-04-15T03:45:23;48.53;37.49;57.04;;
77135;Laerm;48586;50.122;18.972;2023-04-15T03:47:28;45.76;37.29;53.49;;
77135;Laerm;48586;50.122;18.972;2023-04-15T03:49:32;46.50;37.00;54.44;;
77135;Laerm;48586;50.122;18.972;2023-04-15T03:51:37;45.91;37.74;53.95;;
77135;Laerm;48586;50.122;18.972;2023-04-15T03:53:41;45.71;36.45;55.01;;
77135;Laerm;48586;50.122;18.972;2023-04-15T03:55:45;43.61;36.23;52.36;;
77135;Laerm;48586;50.122;18.972;2023-04-15T03:57:52;47.51;36.41;59.22;;
77135;Laerm;48586;50.122;18.972;2023-04-15T03:59:57;47.56;36.92;58.58;;
77135;Laerm;48586;50.122;18.972;2023-04-15T04:02:01;46.74;37.42;58.77;;
77135;Laerm;48586;50.122;18.972;2023-04-15T04:04:06;47.17;38.39;60.98;;
77135;Laerm;48586;50.122;18.972;2023-04-15T04:06:10;50.19;40.49;65.54;;
77135;Laerm;48586;50.122;18.972;2023-04-15T04:08:15;48.47;38.84;69.38;;
77135;Laerm;48586;50.122;18.972;2023-04-15T04:10:20;46.71;37.12;57.12;;
77135;Laerm;48586;50.122;18.972;2023-04-15T04:12:24;48.26;37.24;56.67;;
77135;Laerm;48586;50.122;18.972;2023-04-15T04:14:31;46.90;37.20;55.21;;
77135;Laerm;48586;50.122;18.972;2023-04-15T04:16:36;49.83;39.11;58.55;;
77135;Laerm;48586;50.122;18.972;2023-04-15T04:18:40;48.28;37.43;61.36;;
77135;Laerm;48586;50.122;18.972;2023-04-15T04:20:44;48.81;36.83;56.50;;
77135;Laerm;48586;50.122;18.972;2023-04-15T04:22:49;47.19;36.78;58.41;;
77135;Laerm;48586;50.122;18.972;2023-04-15T04:24:53;45.33;37.07;58.25;;
77135;Laerm;48586;50.122;18.972;2023-04-15T04:26:59;44.89;37.16;54.36;;
77135;Laerm;48586;50.122;18.972;2023-04-15T04:29:04;44.65;36.86;54.54;;
77135;Laerm;48586;50.122;18.972;2023-04-15T04:31:10;48.32;37.89;59.09;;
77135;Laerm;48586;50.122;18.972;2023-04-15T04:33:15;45.14;36.19;55.50;;
77135;Laerm;48586;50.122;18.972;2023-04-15T04:35:20;48.56;36.64;58.63;;
77135;Laerm;48586;50.122;18.972;2023-04-15T04:37:24;44.98;36.83;63.40;;
77135;Laerm;48586;50.122;18.972;2023-04-15T04:39:28;47.61;36.05;67.50;;
77135;Laerm;48586;50.122;18.972;2023-04-15T04:41:33;53.14;37.29;76.52;;
77135;Laerm;48586;50.122;18.972;2023-04-15T04:43:37;49.89;36.35;62.81;;
77135;Laerm;48586;50.122;18.972;2023-04-15T04:45:41;46.29;36.94;55.77;;
77135;Laerm;48586;50.122;18.972;2023-04-15T04:47:49;45.37;36.61;56.91;;
77135;Laerm;48586;50.122;18.972;2023-04-15T04:49:53;48.62;37.75;56.70;;
77135;Laerm;48586;50.122;18.972;2023-04-15T04:51:58;46.04;36.61;59.03;;
77135;Laerm;48586;50.122;18.972;2023-04-15T04:54:04;47.46;36.88;55.70;;
77135;Laerm;48586;50.122;18.972;2023-04-15T04:56:08;43.00;36.12;55.71;;
77135;Laerm;48586;50.122;18.972;2023-04-15T04:58:12;46.97;36.04;62.14;;
77135;Laerm;48586;50.122;18.972;2023-04-15T05:00:18;49.24;36.42;75.13;;
77135;Laerm;48586;50.122;18.972;2023-04-15T05:02:22;48.11;36.02;68.94;;
77135;Laerm;48586;50.122;18.972;2023-04-15T05:04:30;47.05;36.35;67.32;;
77135;Laerm;48586;50.122;18.972;2023-04-15T05:06:35;42.32;36.26;54.36;;
77135;Laerm;48586;50.122;18.972;2023-04-15T05:08:39;42.99;36.49;53.78;;
77135;Laerm;48586;50.122;18.972;2023-04-15T05:10:43;46.13;36.67;56.43;;
77135;Laerm;48586;50.122;18.972;2023-04-15T05:12:48;48.55;37.61;65.83;;
77135;Laerm;48586;50.122;18.972;2023-04-15T05:14:52;45.68;36.93;63.74;;
77135;Laerm;48586;50.122;18.972;2023-04-15T05:16:56;46.07;39.03;54.30;;
77135;Laerm;48586;50.122;18.972;2023-04-15T05:19:01;45.23;37.60;55.73;;
77135;Laerm;48586;50.122;18.972;2023-04-15T05:21:09;46.61;37.75;59.50;;
77135;Laerm;48586;50.122;18.972;2023-04-15T05:23:13;47.88;39.51;56.53;;
77135;Laerm;48586;50.122;18.972;2023-04-15T05:25:18;48.02;37.61;59.09;;
77135;Laerm;48586;50.122;18.972;2023-04-15T05:27:22;47.56;36.82;59.92;;
77135;Laerm;48586;50.122;18.972;2023-04-15T05:29:27;45.45;37.53;55.31;;
77135;Laerm;48586;50.122;18.972;2023-04-15T05:31:32;47.04;37.01;60.96;;
77135;Laerm;48586;50.122;18.972;2023-04-15T05:33:36;48.08;39.78;61.98;;
77135;Laerm;48586;50.122;18.972;2023-04-15T05:35:40;48.24;40.20;56.43;;
77135;Laerm;48586;50.122;18.972;2023-04-15T05:37:48;48.45;40.42;56.00;;
77135;Laerm;48586;50.122;18.972;2023-04-15T05:39:52;46.59;40.60;55.10;;
77135;Laerm;48586;50.122;18.972;2023-04-15T05:41:56;46.81;39.77;62.37;;
77135;Laerm;48586;50.122;18.972;2023-04-15T05:44:01;48.40;38.62;69.95;;
77135;Laerm;48586;50.122;18.972;2023-04-15T05:46:06;67.98;39.84;81.34;;
77135;Laerm;48586;50.122;18.972;2023-04-15T05:48:11;67.25;40.70;84.91;;
77135;Laerm;48586;50.122;18.972;2023-04-15T05:50:16;49.01;39.39;62.58;;
77135;Laerm;48586;50.122;18.972;2023-04-15T05:52:20;48.41;38.03;71.76;;
77135;Laerm;48586;50.122;18.972;2023-04-15T05:54:27;46.26;37.70;73.00;;
77135;Laerm;48586;50.122;18.972;2023-04-15T05:56:32;50.34;38.48;74.01;;
77135;Laerm;48586;50.122;18.972;2023-04-15T05:58:36;44.12;37.04;64.68;;
77135;Laerm;48586;50.122;18.972;2023-04-15T06:00:40;45.01;36.68;54.44;;
77135;Laerm;48586;50.122;18.972;2023-04-15T06:02:45;48.47;37.28;63.35;;
77135;Laerm;48586;50.122;18.972;2023-04-15T06:04:49;43.65;36.73;60.27;;
77135;Laerm;48586;50.122;18.972;2023-04-15T06:06:53;46.98;36.23;57.41;;
77135;Laerm;48586;50.122;18.972;2023-04-15T06:08:58;46.53;37.10;66.26;;
77135;Laerm;48586;50.122;18.972;2023-04-15T06:11:05;47.43;37.98;60.64;;
77135;Laerm;48586;50.122;18.972;2023-04-15T06:13:09;48.02;38.40;57.26;;
77135;Laerm;48586;50.122;18.972;2023-04-15T06:15:14;44.91;36.16;56.87;;
77135;Laerm;48586;50.122;18.972;2023-04-15T06:17:18;45.58;38.49;55.04;;
77135;Laerm;48586;50.122;18.972;2023-04-15T06:19:22;47.29;36.74;58.88;;
77135;Laerm;48586;50.122;18.972;2023-04-15T06:21:27;50.66;36.58;67.61;;
77135;Laerm;48586;50.122;18.972;2023-04-15T06:23:34;48.01;38.38;54.94;;
77135;Laerm;48586;50.122;18.972;2023-04-15T06:25:41;49.15;38.18;58.74;;
77135;Laerm;48586;50.122;18.972;2023-04-15T06:27:48;49.04;37.17;59.67;;
77135;Laerm;48586;50.122;18.972;2023-04-15T06:29:53;48.06;37.84;62.97;;
77135;Laerm;48586;50.122;18.972;2023-04-15T06:31:57;43.28;36.13;63.36;;
77135;Laerm;48586;50.122;18.972;2023-04-15T06:34:02;47.17;36.36;56.37;;
77135;Laerm;48586;50.122;18.972;2023-04-15T06:36:07;50.20;39.01;57.09;;
77135;Laerm;48586;50.122;18.972;2023-04-15T06:38:11;49.53;39.01;58.97;;
77135;Laerm;48586;50.122;18.972;2023-04-15T06:40:16;43.81;36.53;56.16;;
77135;Laerm;48586;50.122;18.972;2023-04-15T06:42:20;47.79;39.12;55.70;;
77135;Laerm;48586;50.122;18.972;2023-04-15T06:44:28;47.86;38.36;58.72;;
77135;Laerm;48586;50.122;18.972;2023-04-15T06:46:34;48.89;40.48;56.61;;
77135;Laerm;48586;50.122;18.972;2023-04-15T06:48:38;47.42;38.92;57.10;;
77135;Laerm;48586;50.122;18.972;2023-04-15T06:50:44;48.06;38.03;55.79;;
77135;Laerm;48586;50.122;18.972;2023-04-15T06:52:52;46.90;37.56;58.13;;
77135;Laerm;48586;50.122;18.972;2023-04-15T06:54:57;49.15;41.20;56.75;;
77135;Laerm;48586;50.122;18.972;2023-04-15T06:57:02;49.13;37.13;56.51;;
77135;Laerm;48586;50.122;18.972;2023-04-15T06:59:08;48.06;39.05;55.86;;
77135;Laerm;48586;50.122;18.972;2023-04-15T07:01:15;49.59;40.12;57.07;;
77135;Laerm;48586;50.122;18.972;2023-04-15T07:03:20;47.75;40.45;55.17;;
77135;Laerm;48586;50.122;18.972;2023-04-15T07:05:26;48.19;36.85;57.35;;
77135;Laerm;48586;50.122;18.972;2023-04-15T07:07:30;48.57;37.87;54.62;;
77135;Laerm;48586;50.122;18.972;2023-04-15T07:09:35;49.91;40.69;66.19;;
77135;Laerm;48586;50.122;18.972;2023-04-15T07:11:40;48.74;37.31;59.48;;
77135;Laerm;48586;50.122;18.972;2023-04-15T07:13:45;45.95;36.17;57.77;;
77135;Laerm;48586;50.122;18.972;2023-04-15T07:15:53;49.29;39.27;57.52;;
77135;Laerm;48586;50.122;18.972;2023-04-15T07:18:02;46.89;36.87;56.26;;
77135;Laerm;48586;50.122;18.972;2023-04-15T07:20:09;48.62;38.68;56.15;;
77135;Laerm;48586;50.122;18.972;2023-04-15T07:22:15;46.57;36.42;54.61;;
77135;Laerm;48586;50.122;18.972;2023-04-15T07:24:20;47.15;37.66;58.60;;
77135;Laerm;48586;50.122;18.972;2023-04-15T07:26:28;49.97;39.08;62.22;;
77135;Laerm;48586;50.122;18.972;2023-04-15T07:28:32;53.75;39.09;73.23;;
77135;Laerm;48586;50.122;18.972;2023-04-15T07:30:38;51.90;38.07;72.81;;
77135;Laerm;48586;50.122;18.972;2023-04-15T07:32:44;47.66;38.08;55.70;;
77135;Laerm;48586;50.122;18.972;2023-04-15T07:34:51;46.85;37.62;57.55;;
77135;Laerm;48586;50.122;18.972;2023-04-15T07:36:57;47.65;38.94;58.20;;
77135;Laerm;48586;50.122;18.972;2023-04-15T07:39:04;49.46;39.18;57.15;;
77135;Laerm;48586;50.122;18.972;2023-04-15T07:41:10;48.58;37.91;56.88;;
77135;Laerm;48586;50.122;18.972;2023-04-15T07:43:16;49.12;39.91;59.20;;
77135;Laerm;48586;50.122;18.972;2023-04-15T07:45:22;47.47;38.22;61.32;;
77135;Laerm;48586;50.122;18.972;2023-04-15T07:47:27;48.39;40.58;59.14;;
77135;Laerm;48586;50.122;18.972;2023-04-15T07:49:32;47.28;38.43;60.85;;
77135;Laerm;48586;50.122;18.972;2023-04-15T07:51:41;47.82;38.84;59.27;;
77135;Laerm;48586;50.122;18.972;2023-04-15T07:53:45;48.61;40.70;59.96;;
77135;Laerm;48586;50.122;18.972;2023-04-15T07:55:50;48.05;40.51;59.15;;
77135;Laerm;48586;50.122;18.972;2023-04-15T07:57:55;47.77;37.39;55.07;;
77135;Laerm;48586;50.122;18.972;2023-04-15T08:00:02;48.21;36.63;57.52;;
77135;Laerm;48586;50.122;18.972;2023-04-15T08:02:27;46.72;37.95;55.67;;
77135;Laerm;48586;50.122;18.972;2023-04-15T08:04:32;49.67;40.51;61.87;;
77135;Laerm;48586;50.122;18.972;2023-04-15T08:06:39;46.59;38.65;56.78;;
77135;Laerm;48586;50.122;18.972;2023-04-15T08:08:45;51.37;40.52;62.28;;
77135;Laerm;48586;50.122;18.972;2023-04-15T08:10:50;50.11;40.07;61.47;;
77135;Laerm;48586;50.122;18.972;2023-04-15T08:12:55;49.32;39.28;56.82;;
77135;Laerm;48586;50.122;18.972;2023-04-15T08:15:00;49.09;40.80;56.60;;
77135;Laerm;48586;50.122;18.972;2023-04-15T08:17:05;48.60;40.33;55.08;;
77135;Laerm;48586;50.122;18.972;2023-04-15T08:19:10;49.05;39.84;57.93;;
77135;Laerm;48586;50.122;18.972;2023-04-15T08:21:17;49.47;39.78;57.95;;
77135;Laerm;48586;50.122;18.972;2023-04-15T08:23:25;47.75;40.07;55.70;;
77135;Laerm;48586;50.122;18.972;2023-04-15T08:25:29;48.81;42.38;59.80;;
77135;Laerm;48586;50.122;18.972;2023-04-15T08:27:35;48.19;39.87;55.66;;
77135;Laerm;48586;50.122;18.972;2023-04-15T08:29:40;49.02;39.79;60.25;;
77135;Laerm;48586;50.122;18.972;2023-04-15T08:31:46;52.76;43.31;65.10;;
77135;Laerm;48586;50.122;18.972;2023-04-15T08:33:52;48.73;38.93;60.41;;
77135;Laerm;48586;50.122;18.972;2023-04-15T08:35:58;49.25;40.92;58.12;;
77135;Laerm;48586;50.122;18.972;2023-04-15T08:38:03;50.09;42.02;58.13;;
77135;Laerm;48586;50.122;18.972;2023-04-15T08:40:12;50.64;40.31;70.12;;
77135;Laerm;48586;50.122;18.972;2023-04-15T08:42:28;47.15;39.76;56.68;;
77135;Laerm;48586;50.122;18.972;2023-04-15T08:44:35;48.74;38.39;60.86;;
77135;Laerm;48586;50.122;18.972;2023-04-15T08:46:41;47.65;38.10;58.80;;
77135;Laerm;48586;50.122;18.972;2023-04-15T08:48:48;46.04;36.78;58.95;;
77135;Laerm;48586;50.122;18.972;2023-04-15T08:50:54;49.88;39.83;62.02;;
77135;Laerm;48586;50.122;18.972;2023-04-15T08:53:00;46.27;37.05;59.11;;
77135;Laerm;48586;50.122;18.972;2023-04-15T08:55:11;51.40;38.13;67.82;;
77135;Laerm;48586;50.122;18.972;2023-04-15T08:57:17;50.98;44.44;57.37;;
77135;Laerm;48586;50.122;18.972;2023-04-15T08:59:24;47.19;37.22;59.29;;
77135;Laerm;48586;50.122;18.972;2023-04-15T09:01:30;47.14;37.81;56.08;;
77135;Laerm;48586;50.122;18.972;2023-04-15T09:03:37;48.73;39.05;58.25;;
77135;Laerm;48586;50.122;18.972;2023-04-15T09:05:44;48.86;39.54;61.09;;
77135;Laerm;48586;50.122;18.972;2023-04-15T09:07:49;51.20;42.29;63.01;;
77135;Laerm;48586;50.122;18.972;2023-04-15T09:09:54;48.87;39.89;58.73;;
77135;Laerm;48586;50.122;18.972;2023-04-15T09:12:03;48.99;39.22;59.92;;
77135;Laerm;48586;50.122;18.972;2023-04-15T09:14:08;48.94;40.54;58.51;;
77135;Laerm;48586;50.122;18.972;2023-04-15T09:16:14;47.79;39.43;54.31;;
77135;Laerm;48586;50.122;18.972;2023-04-15T09:18:27;47.21;37.02;56.56;;
77135;Laerm;48586;50.122;18.972;2023-04-15T09:20:39;46.96;39.49;55.24;;
77135;Laerm;48586;50.122;18.972;2023-04-15T09:22:48;47.50;38.38;56.26;;
77135;Laerm;48586;50.122;18.972;2023-04-15T09:24:55;46.70;38.56;55.52;;
77135;Laerm;48586;50.122;18.972;2023-04-15T09:26:59;46.61;37.58;55.71;;
77135;Laerm;48586;50.122;18.972;2023-04-15T09:29:09;47.03;38.79;55.60;;
77135;Laerm;48586;50.122;18.972;2023-04-15T09:31:15;48.88;36.81;63.99;;
77135;Laerm;48586;50.122;18.972;2023-04-15T09:33:21;46.44;37.60;55.41;;
77135;Laerm;48586;50.122;18.972;2023-04-15T09:35:27;48.05;39.89;62.47;;
77135;Laerm;48586;50.122;18.972;2023-04-15T09:37:35;46.26;37.56;58.87;;
77135;Laerm;48586;50.122;18.972;2023-04-15T09:39:49;56.29;40.75;83.70;;
77135;Laerm;48586;50.122;18.972;2023-04-15T09:42:06;48.96;39.28;57.16;;
77135;Laerm;48586;50.122;18.972;2023-04-15T09:44:26;48.33;38.45;58.80;;
77135;Laerm;48586;50.122;18.972;2023-04-15T09:46:41;49.22;40.47;61.54;;
77135;Laerm;48586;50.122;18.972;2023-04-15T09:49:06;49.62;39.88;74.07;;
77135;Laerm;48586;50.122;18.972;2023-04-15T09:51:12;49.66;40.70;65.71;;
77135;Laerm;48586;50.122;18.972;2023-04-15T09:53:20;48.64;38.79;56.35;;
77135;Laerm;48586;50.122;18.972;2023-04-15T09:55:25;48.04;37.49;63.37;;
77135;Laerm;48586;50.122;18.972;2023-04-15T09:57:35;47.74;40.08;55.12;;
77135;Laerm;48586;50.122;18.972;2023-04-15T09:59:44;47.90;40.11;56.96;;
77135;Laerm;48586;50.122;18.972;2023-04-15T10:01:50;71.27;42.32;85.54;;
77135;Laerm;48586;50.122;18.972;2023-04-15T10:03:57;50.54;40.07;59.87;;
77135;Laerm;48586;50.122;18.972;2023-04-15T10:06:03;49.81;38.61;65.37;;
77135;Laerm;48586;50.122;18.972;2023-04-15T10:08:08;46.74;39.16;55.19;;
77135;Laerm;48586;50.122;18.972;2023-04-15T10:10:16;50.73;38.32;72.39;;
77135;Laerm;48586;50.122;18.972;2023-04-15T10:12:22;50.11;41.11;58.19;;
77135;Laerm;48586;50.122;18.972;2023-04-15T10:14:34;48.58;40.36;57.23;;
77135;Laerm;48586;50.122;18.972;2023-04-15T10:16:47;47.57;37.53;56.72;;
77135;Laerm;48586;50.122;18.972;2023-04-15T10:18:55;49.65;38.42;59.01;;
77135;Laerm;48586;50.122;18.972;2023-04-15T10:21:01;47.15;38.83;55.48;;
77135;Laerm;48586;50.122;18.972;2023-04-15T10:23:10;49.32;40.53;64.15;;
77135;Laerm;48586;50.122;18.972;2023-04-15T10:25:15;50.46;39.42;68.85;;
77135;Laerm;48586;50.122;18.972;2023-04-15T10:27:21;50.60;43.39;60.57;;
77135;Laerm;48586;50.122;18.972;2023-04-15T10:29:26;49.89;42.30;59.10;;
77135;Laerm;48586;50.122;18.972;2023-04-15T10:31:30;48.31;40.53;59.98;;
77135;Laerm;48586;50.122;18.972;2023-04-15T10:33:40;48.50;40.11;55.31;;
77135;Laerm;48586;50.122;18.972;2023-04-15T10:35:49;50.33;41.66;59.09;;
77135;Laerm;48586;50.122;18.972;2023-04-15T10:37:53;49.44;39.61;67.05;;
77135;Laerm;48586;50.122;18.972;2023-04-15T10:39:58;49.36;39.82;61.50;;
77135;Laerm;48586;50.122;18.972;2023-04-15T10:42:09;48.11;39.97;56.90;;
77135;Laerm;48586;50.122;18.972;2023-04-15T10:44:13;48.86;40.50;56.66;;
77135;Laerm;48586;50.122;18.972;2023-04-15T10:46:21;49.40;37.87;57.94;;
77135;Laerm;48586;50.122;18.972;2023-04-15T10:48:26;47.20;37.00;56.84;;
77135;Laerm;48586;50.122;18.972;2023-04-15T10:50:33;49.61;42.46;59.41;;
77135;Laerm;48586;50.122;18.972;2023-04-15T10:52:40;49.04;40.25;56.68;;
77135;Laerm;48586;50.122;18.972;2023-04-15T10:54:45;46.71;39.33;56.05;;
77135;Laerm;48586;50.122;18.972;2023-04-15T10:57:05;48.57;39.72;55.00;;
77135;Laerm;48586;50.122;18.972;2023-04-15T10:59:10;49.62;40.19;57.69;;
77135;Laerm;48586;50.122;18.972;2023-04-15T11:01:16;52.48;39.50;77.98;;
77135;Laerm;48586;50.122;18.972;2023-04-15T11:03:37;54.57;39.12;71.34;;
77135;Laerm;48586;50.122;18.972;2023-04-15T11:05:51;49.20;38.43;59.48;;
77135;Laerm;48586;50.122;18.972;2023-04-15T11:07:58;50.91;39.92;61.21;;
77135;Laerm;48586;50.122;18.972;2023-04-15T11:10:03;49.68;40.29;65.02;;
77135;Laerm;48586;50.122;18.972;2023-04-15T11:12:09;50.21;40.35;66.69;;
77135;Laerm;48586;50.122;18.972;2023-04-15T11:14:15;50.88;40.77;59.57;;
77135;Laerm;48586;50.122;18.972;2023-04-15T11:16:19;70.09;40.70;84.90;;
77135;Laerm;48586;50.122;18.972;2023-04-15T11:18:33;66.51;42.38;80.03;;
77135;Laerm;48586;50.122;18.972;2023-04-15T11:20:41;50.38;40.37;60.57;;
77135;Laerm;48586;50.122;18.972;2023-04-15T11:22:51;51.01;45.05;61.97;;
77135;Laerm;48586;50.122;18.972;2023-04-15T11:24:55;49.67;42.78;56.25;;
77135;Laerm;48586;50.122;18.972;2023-04-15T11:27:01;50.72;42.98;57.08;;
77135;Laerm;48586;50.122;18.972;2023-04-15T11:29:05;49.01;38.90;59.29;;
77135;Laerm;48586;50.122;18.972;2023-04-15T11:31:12;47.98;40.76;55.20;;
77135;Laerm;48586;50.122;18.972;2023-04-15T11:33:19;49.91;42.22;58.24;;
77135;Laerm;48586;50.122;18.972;2023-04-15T11:35:24;49.44;38.65;56.83;;